sensor_id;sensor_type;location;lat;lon;timestamp;temperature;humidity
21807;DHT22;11065;50.786;7.840;2023-05-10T00:00:16;16.50;58.60
21807;DHT22;11065;50.786;7.840;2023-05-10T00:02:45;16.50;58.70
21807;DHT22;11065;50.786;7.840;2023-05-10T00:05:13;16.40;58.70
21807;DHT22;11065;50.786;7.840;2023-05-10T00:07:41;16.40;58.80
21807;DHT22;11065;50.786;7.840;2023-05-10T00:10:11;16.50;58.90
21807;DHT22;11065;50.786;7.840;2023-05-10T00:12:42;16.40;58.80
21807;DHT22;11065;50.786;7.840;2023-05-10T00:15:10;16.40;58.90
21807;DHT22;11065;50.786;7.840;2023-05-10T00:17:38;16.40;58.90
21807;DHT22;11065;50.786;7.840;2023-05-10T00:20:07;16.40;58.80
21807;DHT22;11065;50.786;7.840;2023-05-10T00:22:35;16.40;58.90
21807;DHT22;11065;50.786;7.840;2023-05-10T00:25:04;16.40;58.90
21807;DHT22;11065;50.786;7.840;2023-05-10T00:27:32;16.40;59.10
21807;DHT22;11065;50.786;7.840;2023-05-10T00:30:02;16.40;59.00
21807;DHT22;11065;50.786;7.840;2023-05-10T00:32:30;16.40;59.00
21807;DHT22;11065;50.786;7.840;2023-05-10T00:34:58;16.40;59.00
21807;DHT22;11065;50.786;7.840;2023-05-10T00:37:26;16.40;59.00
21807;DHT22;11065;50.786;7.840;2023-05-10T00:39:54;16.30;58.90
21807;DHT22;11065;50.786;7.840;2023-05-10T00:42:22;16.30;59.00
21807;DHT22;11065;50.786;7.840;2023-05-10T00:44:52;16.30;59.10
21807;DHT22;11065;50.786;7.840;2023-05-10T00:47:22;16.30;59.20
21807;DHT22;11065;50.786;7.840;2023-05-10T00:49:50;16.30;59.30
21807;DHT22;11065;50.786;7.840;2023-05-10T00:52:19;16.30;59.30
21807;DHT22;11065;50.786;7.840;2023-05-10T00:54:47;16.30;59.30
21807;DHT22;11065;50.786;7.840;2023-05-10T00:57:16;16.30;59.20
21807;DHT22;11065;50.786;7.840;2023-05-10T00:59:44;16.30;59.30
21807;DHT22;11065;50.786;7.840;2023-05-10T01:02:12;16.30;59.50
21807;DHT22;11065;50.786;7.840;2023-05-10T01:04:43;16.20;59.40
21807;DHT22;11065;50.786;7.840;2023-05-10T01:07:11;16.20;59.50
21807;DHT22;11065;50.786;7.840;2023-05-10T01:09:39;16.20;59.50
21807;DHT22;11065;50.786;7.840;2023-05-10T01:12:07;16.20;59.50
21807;DHT22;11065;50.786;7.840;2023-05-10T01:14:35;16.20;59.50
21807;DHT22;11065;50.786;7.840;2023-05-10T01:17:06;16.20;59.50
21807;DHT22;11065;50.786;7.840;2023-05-10T01:19:36;16.20;59.60
21807;DHT22;11065;50.786;7.840;2023-05-10T01:22:16;16.20;59.60
21807;DHT22;11065;50.786;7.840;2023-05-10T01:25:26;16.20;59.90
21807;DHT22;11065;50.786;7.840;2023-05-10T01:28:27;16.20;60.00
21807;DHT22;11065;50.786;7.840;2023-05-10T01:31:22;16.20;60.00
21807;DHT22;11065;50.786;7.840;2023-05-10T01:33:58;16.20;59.90
21807;DHT22;11065;50.786;7.840;2023-05-10T01:36:32;16.20;59.60
21807;DHT22;11065;50.786;7.840;2023-05-10T01:39:11;16.20;59.70
21807;DHT22;11065;50.786;7.840;2023-05-10T01:41:46;16.20;59.90
21807;DHT22;11065;50.786;7.840;2023-05-10T01:44:20;16.30;59.80
21807;DHT22;11065;50.786;7.840;2023-05-10T01:46:56;16.20;59.70
21807;DHT22;11065;50.786;7.840;2023-05-10T01:49:32;16.20;59.70
21807;DHT22;11065;50.786;7.840;2023-05-10T01:52:07;16.20;59.90
21807;DHT22;11065;50.786;7.840;2023-05-10T01:54:40;16.20;59.90
21807;DHT22;11065;50.786;7.840;2023-05-10T01:57:10;16.10;59.80
21807;DHT22;11065;50.786;7.840;2023-05-10T01:59:39;16.10;59.80
21807;DHT22;11065;50.786;7.840;2023-05-10T02:02:08;16.20;59.90
21807;DHT22;11065;50.786;7.840;2023-05-10T02:04:41;16.20;59.80
21807;DHT22;11065;50.786;7.840;2023-05-10T02:07:10;16.20;60.00
21807;DHT22;11065;50.786;7.840;2023-05-10T02:09:40;16.20;60.00
21807;DHT22;11065;50.786;7.840;2023-05-10T02:12:12;16.10;59.90
21807;DHT22;11065;50.786;7.840;2023-05-10T02:14:42;16.10;60.00
21807;DHT22;11065;50.786;7.840;2023-05-10T02:17:11;16.10;59.80
21807;DHT22;11065;50.786;7.840;2023-05-10T02:19:43;16.10;59.90
21807;DHT22;11065;50.786;7.840;2023-05-10T02:22:12;16.10;60.00
21807;DHT22;11065;50.786;7.840;2023-05-10T02:24:40;16.10;60.10
21807;DHT22;11065;50.786;7.840;2023-05-10T02:27:09;16.10;59.90
21807;DHT22;11065;50.786;7.840;2023-05-10T02:29:38;16.10;60.00
21807;DHT22;11065;50.786;7.840;2023-05-10T02:32:08;16.10;60.00
21807;DHT22;11065;50.786;7.840;2023-05-10T02:34:38;16.10;60.20
21807;DHT22;11065;50.786;7.840;2023-05-10T02:37:09;16.00;60.00
21807;DHT22;11065;50.786;7.840;2023-05-10T02:39:38;16.10;60.30
21807;DHT22;11065;50.786;7.840;2023-05-10T02:42:16;16.10;60.20
21807;DHT22;11065;50.786;7.840;2023-05-10T02:44:47;16.00;60.40
21807;DHT22;11065;50.786;7.840;2023-05-10T02:47:17;16.10;60.40
21807;DHT22;11065;50.786;7.840;2023-05-10T02:49:45;16.10;60.30
21807;DHT22;11065;50.786;7.840;2023-05-10T02:52:19;16.10;60.30
21807;DHT22;11065;50.786;7.840;2023-05-10T02:54:52;16.10;60.40
21807;DHT22;11065;50.786;7.840;2023-05-10T02:57:25;16.10;60.40
21807;DHT22;11065;50.786;7.840;2023-05-10T02:59:54;16.10;60.40
21807;DHT22;11065;50.786;7.840;2023-05-10T03:02:22;16.10;60.30
21807;DHT22;11065;50.786;7.840;2023-05-10T03:04:50;16.10;60.30
21807;DHT22;11065;50.786;7.840;2023-05-10T03:07:20;16.10;60.40
21807;DHT22;11065;50.786;7.840;2023-05-10T03:09:49;16.10;60.50
21807;DHT22;11065;50.786;7.840;2023-05-10T03:12:26;16.10;60.40
21807;DHT22;11065;50.786;7.840;2023-05-10T03:15:02;16.10;60.70
21807;DHT22;11065;50.786;7.840;2023-05-10T03:17:35;16.10;60.90
21807;DHT22;11065;50.786;7.840;2023-05-10T03:20:10;16.00;60.80
21807;DHT22;11065;50.786;7.840;2023-05-10T03:22:44;16.00;60.80
21807;DHT22;11065;50.786;7.840;2023-05-10T03:25:15;16.10;60.90
21807;DHT22;11065;50.786;7.840;2023-05-10T03:27:45;16.10;61.00
21807;DHT22;11065;50.786;7.840;2023-05-10T03:30:13;16.00;61.00
21807;DHT22;11065;50.786;7.840;2023-05-10T03:32:42;16.10;60.90
21807;DHT22;11065;50.786;7.840;2023-05-10T03:35:12;16.10;60.80
21807;DHT22;11065;50.786;7.840;2023-05-10T03:37:42;16.10;60.90
21807;DHT22;11065;50.786;7.840;2023-05-10T03:40:10;16.10;61.10
21807;DHT22;11065;50.786;7.840;2023-05-10T03:42:41;16.10;60.90
21807;DHT22;11065;50.786;7.840;2023-05-10T03:45:09;16.10;61.00
21807;DHT22;11065;50.786;7.840;2023-05-10T03:47:38;16.10;60.90
21807;DHT22;11065;50.786;7.840;2023-05-10T03:50:07;16.00;60.80
21807;DHT22;11065;50.786;7.840;2023-05-10T03:52:35;16.10;61.20
21807;DHT22;11065;50.786;7.840;2023-05-10T03:55:07;16.00;61.00
21807;DHT22;11065;50.786;7.840;2023-05-10T03:57:35;16.00;61.30
21807;DHT22;11065;50.786;7.840;2023-05-10T04:00:06;16.00;61.00
21807;DHT22;11065;50.786;7.840;2023-05-10T04:02:40;16.00;61.00
21807;DHT22;11065;50.786;7.840;2023-05-10T04:05:14;16.00;61.10
21807;DHT22;11065;50.786;7.840;2023-05-10T04:07:42;16.00;61.30
21807;DHT22;11065;50.786;7.840;2023-05-10T04:10:12;16.00;61.20
21807;DHT22;11065;50.786;7.840;2023-05-10T04:12:41;16.00;61.20
21807;DHT22;11065;50.786;7.840;2023-05-10T04:15:09;16.00;61.20
21807;DHT22;11065;50.786;7.840;2023-05-10T04:17:37;16.00;61.20
21807;DHT22;11065;50.786;7.840;2023-05-10T04:20:06;16.00;61.20
21807;DHT22;11065;50.786;7.840;2023-05-10T04:22:35;16.00;61.20
21807;DHT22;11065;50.786;7.840;2023-05-10T04:25:03;16.00;61.30
21807;DHT22;11065;50.786;7.840;2023-05-10T04:27:33;16.00;61.30
21807;DHT22;11065;50.786;7.840;2023-05-10T04:30:01;16.00;61.30
21807;DHT22;11065;50.786;7.840;2023-05-10T04:32:29;16.00;61.30
21807;DHT22;11065;50.786;7.840;2023-05-10T04:34:58;16.00;61.20
21807;DHT22;11065;50.786;7.840;2023-05-10T04:37:26;15.90;61.30
21807;DHT22;11065;50.786;7.840;2023-05-10T04:39:54;16.00;61.30
21807;DHT22;11065;50.786;7.840;2023-05-10T04:42:22;16.00;61.50
21807;DHT22;11065;50.786;7.840;2023-05-10T04:44:51;15.90;61.50
21807;DHT22;11065;50.786;7.840;2023-05-10T04:47:19;16.00;61.80
21807;DHT22;11065;50.786;7.840;2023-05-10T04:49:47;15.90;61.60
21807;DHT22;11065;50.786;7.840;2023-05-10T04:52:15;16.00;61.80
21807;DHT22;11065;50.786;7.840;2023-05-10T04:54:44;16.00;61.80
21807;DHT22;11065;50.786;7.840;2023-05-10T04:57:12;16.00;61.80
21807;DHT22;11065;50.786;7.840;2023-05-10T04:59:40;16.00;61.90
21807;DHT22;11065;50.786;7.840;2023-05-10T05:02:10;16.00;61.90
21807;DHT22;11065;50.786;7.840;2023-05-10T05:04:38;16.00;62.00
21807;DHT22;11065;50.786;7.840;2023-05-10T05:07:06;16.00;62.00
21807;DHT22;11065;50.786;7.840;2023-05-10T05:09:34;16.00;62.00
21807;DHT22;11065;50.786;7.840;2023-05-10T05:12:03;16.00;61.90
21807;DHT22;11065;50.786;7.840;2023-05-10T05:14:33;16.10;62.00
21807;DHT22;11065;50.786;7.840;2023-05-10T05:17:00;16.10;62.00
21807;DHT22;11065;50.786;7.840;2023-05-10T05:19:31;16.10;62.00
21807;DHT22;11065;50.786;7.840;2023-05-10T05:21:59;16.10;62.30
21807;DHT22;11065;50.786;7.840;2023-05-10T05:24:27;16.10;62.30
21807;DHT22;11065;50.786;7.840;2023-05-10T05:26:55;16.10;62.30
21807;DHT22;11065;50.786;7.840;2023-05-10T05:29:22;16.10;62.30
21807;DHT22;11065;50.786;7.840;2023-05-10T05:31:50;16.20;62.40
21807;DHT22;11065;50.786;7.840;2023-05-10T05:34:21;16.20;62.60
21807;DHT22;11065;50.786;7.840;2023-05-10T05:36:50;16.20;62.60
21807;DHT22;11065;50.786;7.840;2023-05-10T05:39:18;16.30;62.70
21807;DHT22;11065;50.786;7.840;2023-05-10T05:41:46;16.30;62.60
21807;DHT22;11065;50.786;7.840;2023-05-10T05:44:14;16.30;62.40
21807;DHT22;11065;50.786;7.840;2023-05-10T05:46:42;16.40;62.40
21807;DHT22;11065;50.786;7.840;2023-05-10T05:49:10;16.40;62.10
21807;DHT22;11065;50.786;7.840;2023-05-10T05:51:38;16.40;62.00
21807;DHT22;11065;50.786;7.840;2023-05-10T05:54:08;16.40;62.00
21807;DHT22;11065;50.786;7.840;2023-05-10T05:56:36;16.40;62.20
21807;DHT22;11065;50.786;7.840;2023-05-10T05:59:04;16.40;62.20
21807;DHT22;11065;50.786;7.840;2023-05-10T06:01:32;16.40;62.30
21807;DHT22;11065;50.786;7.840;2023-05-10T06:04:00;16.40;62.30
21807;DHT22;11065;50.786;7.840;2023-05-10T06:06:29;16.50;62.30
21807;DHT22;11065;50.786;7.840;2023-05-10T06:08:59;16.50;62.30
21807;DHT22;11065;50.786;7.840;2023-05-10T06:11:28;16.50;62.40
21807;DHT22;11065;50.786;7.840;2023-05-10T06:13:57;16.50;62.50
21807;DHT22;11065;50.786;7.840;2023-05-10T06:16:26;16.60;62.60
21807;DHT22;11065;50.786;7.840;2023-05-10T06:18:54;16.60;62.50
21807;DHT22;11065;50.786;7.840;2023-05-10T06:21:23;16.70;62.60
21807;DHT22;11065;50.786;7.840;2023-05-10T06:23:51;16.70;62.60
21807;DHT22;11065;50.786;7.840;2023-05-10T06:26:19;16.70;62.50
21807;DHT22;11065;50.786;7.840;2023-05-10T06:28:48;16.80;62.50
21807;DHT22;11065;50.786;7.840;2023-05-10T06:31:16;16.80;62.60
21807;DHT22;11065;50.786;7.840;2023-05-10T06:33:45;16.90;62.70
21807;DHT22;11065;50.786;7.840;2023-05-10T06:36:13;16.90;62.90
21807;DHT22;11065;50.786;7.840;2023-05-10T06:38:41;17.00;63.20
21807;DHT22;11065;50.786;7.840;2023-05-10T06:41:09;17.10;63.40
21807;DHT22;11065;50.786;7.840;2023-05-10T06:43:37;17.20;63.50
21807;DHT22;11065;50.786;7.840;2023-05-10T06:46:09;17.30;63.60
21807;DHT22;11065;50.786;7.840;2023-05-10T06:48:37;17.40;63.50
21807;DHT22;11065;50.786;7.840;2023-05-10T06:51:05;17.50;63.20
21807;DHT22;11065;50.786;7.840;2023-05-10T06:53:33;17.60;62.70
21807;DHT22;11065;50.786;7.840;2023-05-10T06:56:01;17.70;62.20
21807;DHT22;11065;50.786;7.840;2023-05-10T06:58:30;17.70;61.90
21807;DHT22;11065;50.786;7.840;2023-05-10T07:01:03;17.80;61.90
21807;DHT22;11065;50.786;7.840;2023-05-10T07:03:33;17.80;61.70
21807;DHT22;11065;50.786;7.840;2023-05-10T07:06:01;17.90;61.40
21807;DHT22;11065;50.786;7.840;2023-05-10T07:08:31;17.80;61.10
21807;DHT22;11065;50.786;7.840;2023-05-10T07:11:00;17.80;60.90
21807;DHT22;11065;50.786;7.840;2023-05-10T07:13:28;17.80;60.60
21807;DHT22;11065;50.786;7.840;2023-05-10T07:15:57;17.80;60.20
21807;DHT22;11065;50.786;7.840;2023-05-10T07:18:25;17.80;60.00
21807;DHT22;11065;50.786;7.840;2023-05-10T07:20:54;17.70;59.70
21807;DHT22;11065;50.786;7.840;2023-05-10T07:23:22;17.70;59.60
21807;DHT22;11065;50.786;7.840;2023-05-10T07:25:51;17.60;59.60
21807;DHT22;11065;50.786;7.840;2023-05-10T07:28:20;17.50;59.50
21807;DHT22;11065;50.786;7.840;2023-05-10T07:30:48;17.40;59.60
21807;DHT22;11065;50.786;7.840;2023-05-10T07:33:16;17.40;60.30
21807;DHT22;11065;50.786;7.840;2023-05-10T07:35:44;17.30;59.80
21807;DHT22;11065;50.786;7.840;2023-05-10T07:38:14;17.30;60.00
21807;DHT22;11065;50.786;7.840;2023-05-10T07:40:42;17.30;60.40
21807;DHT22;11065;50.786;7.840;2023-05-10T07:43:10;17.30;60.50
21807;DHT22;11065;50.786;7.840;2023-05-10T07:45:38;17.20;60.50
21807;DHT22;11065;50.786;7.840;2023-05-10T07:48:06;17.20;60.50
21807;DHT22;11065;50.786;7.840;2023-05-10T07:50:35;17.20;60.30
21807;DHT22;11065;50.786;7.840;2023-05-10T07:53:02;17.20;60.20
21807;DHT22;11065;50.786;7.840;2023-05-10T07:55:32;17.10;60.10
21807;DHT22;11065;50.786;7.840;2023-05-10T07:58:00;17.10;60.10
21807;DHT22;11065;50.786;7.840;2023-05-10T08:00:29;17.10;60.40
21807;DHT22;11065;50.786;7.840;2023-05-10T08:02:57;17.10;60.70
21807;DHT22;11065;50.786;7.840;2023-05-10T08:05:25;17.10;60.90
21807;DHT22;11065;50.786;7.840;2023-05-10T08:07:53;17.10;61.10
21807;DHT22;11065;50.786;7.840;2023-05-10T08:10:21;17.20;61.20
21807;DHT22;11065;50.786;7.840;2023-05-10T08:12:51;17.20;61.20
21807;DHT22;11065;50.786;7.840;2023-05-10T08:15:19;17.30;61.20
21807;DHT22;11065;50.786;7.840;2023-05-10T08:17:47;17.30;61.10
21807;DHT22;11065;50.786;7.840;2023-05-10T08:20:15;17.30;61.00
21807;DHT22;11065;50.786;7.840;2023-05-10T08:22:45;17.40;61.20
21807;DHT22;11065;50.786;7.840;2023-05-10T08:25:17;17.50;61.70
21807;DHT22;11065;50.786;7.840;2023-05-10T08:27:45;17.50;62.10
21807;DHT22;11065;50.786;7.840;2023-05-10T08:30:15;17.60;62.30
21807;DHT22;11065;50.786;7.840;2023-05-10T08:32:43;17.70;61.70
21807;DHT22;11065;50.786;7.840;2023-05-10T08:35:11;17.80;61.30
21807;DHT22;11065;50.786;7.840;2023-05-10T08:37:39;17.90;61.00
21807;DHT22;11065;50.786;7.840;2023-05-10T08:40:09;18.00;60.60
21807;DHT22;11065;50.786;7.840;2023-05-10T08:42:42;18.00;60.70
21807;DHT22;11065;50.786;7.840;2023-05-10T08:45:11;18.10;61.60
21807;DHT22;11065;50.786;7.840;2023-05-10T08:47:41;18.30;62.80
21807;DHT22;11065;50.786;7.840;2023-05-10T08:50:10;18.50;62.60
21807;DHT22;11065;50.786;7.840;2023-05-10T08:52:40;18.60;61.80
21807;DHT22;11065;50.786;7.840;2023-05-10T08:55:09;18.70;60.70
21807;DHT22;11065;50.786;7.840;2023-05-10T08:57:37;18.80;59.80
21807;DHT22;11065;50.786;7.840;2023-05-10T09:00:06;18.90;59.50
21807;DHT22;11065;50.786;7.840;2023-05-10T09:02:37;18.80;59.20
21807;DHT22;11065;50.786;7.840;2023-05-10T09:05:07;18.80;59.20
21807;DHT22;11065;50.786;7.840;2023-05-10T09:07:37;18.80;59.20
21807;DHT22;11065;50.786;7.840;2023-05-10T09:10:07;18.80;59.30
21807;DHT22;11065;50.786;7.840;2023-05-10T09:12:36;18.80;59.40
21807;DHT22;11065;50.786;7.840;2023-05-10T09:15:06;18.80;59.10
21807;DHT22;11065;50.786;7.840;2023-05-10T09:17:35;18.80;58.90
21807;DHT22;11065;50.786;7.840;2023-05-10T09:20:06;18.70;58.60
21807;DHT22;11065;50.786;7.840;2023-05-10T09:22:34;18.70;58.50
21807;DHT22;11065;50.786;7.840;2023-05-10T09:25:06;18.70;58.60
21807;DHT22;11065;50.786;7.840;2023-05-10T09:27:35;18.60;58.60
21807;DHT22;11065;50.786;7.840;2023-05-10T09:30:04;18.60;58.90
21807;DHT22;11065;50.786;7.840;2023-05-10T09:32:37;18.60;59.00
21807;DHT22;11065;50.786;7.840;2023-05-10T09:35:12;18.60;59.10
21807;DHT22;11065;50.786;7.840;2023-05-10T09:37:43;18.70;59.10
21807;DHT22;11065;50.786;7.840;2023-05-10T09:40:13;18.80;59.80
21807;DHT22;11065;50.786;7.840;2023-05-10T09:42:43;18.90;60.30
21807;DHT22;11065;50.786;7.840;2023-05-10T09:45:18;19.20;60.50
21807;DHT22;11065;50.786;7.840;2023-05-10T09:47:46;19.30;60.40
21807;DHT22;11065;50.786;7.840;2023-05-10T09:50:16;19.50;60.50
21807;DHT22;11065;50.786;7.840;2023-05-10T09:52:48;19.80;60.10
21807;DHT22;11065;50.786;7.840;2023-05-10T09:55:18;19.90;58.90
21807;DHT22;11065;50.786;7.840;2023-05-10T09:57:46;20.00;58.70
21807;DHT22;11065;50.786;7.840;2023-05-10T10:00:18;20.10;58.50
21807;DHT22;11065;50.786;7.840;2023-05-10T10:02:48;20.10;58.40
21807;DHT22;11065;50.786;7.840;2023-05-10T10:05:28;20.20;59.70
21807;DHT22;11065;50.786;7.840;2023-05-10T10:07:57;20.50;59.30
21807;DHT22;11065;50.786;7.840;2023-05-10T10:10:25;20.70;58.90
21807;DHT22;11065;50.786;7.840;2023-05-10T10:12:53;20.80;57.80
21807;DHT22;11065;50.786;7.840;2023-05-10T10:15:22;20.80;56.80
21807;DHT22;11065;50.786;7.840;2023-05-10T10:17:51;20.80;56.40
21807;DHT22;11065;50.786;7.840;2023-05-10T10:20:20;20.70;55.70
21807;DHT22;11065;50.786;7.840;2023-05-10T10:22:50;20.50;56.00
21807;DHT22;11065;50.786;7.840;2023-05-10T10:25:19;20.40;56.00
21807;DHT22;11065;50.786;7.840;2023-05-10T10:28:08;20.30;56.40
21807;DHT22;11065;50.786;7.840;2023-05-10T10:30:41;20.30;56.50
21807;DHT22;11065;50.786;7.840;2023-05-10T10:33:25;20.20;56.90
21807;DHT22;11065;50.786;7.840;2023-05-10T10:35:58;20.40;58.90
21807;DHT22;11065;50.786;7.840;2023-05-10T10:38:37;20.80;62.00
21807;DHT22;11065;50.786;7.840;2023-05-10T10:41:31;21.40;60.10
21807;DHT22;11065;50.786;7.840;2023-05-10T10:44:36;21.80;57.90
21807;DHT22;11065;50.786;7.840;2023-05-10T10:47:21;22.00;56.00
21807;DHT22;11065;50.786;7.840;2023-05-10T10:50:06;22.00;55.90
21807;DHT22;11065;50.786;7.840;2023-05-10T10:52:35;21.90;54.10
21807;DHT22;11065;50.786;7.840;2023-05-10T10:55:07;21.70;54.00
21807;DHT22;11065;50.786;7.840;2023-05-10T10:57:49;21.50;53.80
21807;DHT22;11065;50.786;7.840;2023-05-10T11:00:26;21.30;53.80
21807;DHT22;11065;50.786;7.840;2023-05-10T11:02:57;21.10;53.90
21807;DHT22;11065;50.786;7.840;2023-05-10T11:05:35;20.90;54.20
21807;DHT22;11065;50.786;7.840;2023-05-10T11:08:11;20.80;54.00
21807;DHT22;11065;50.786;7.840;2023-05-10T11:11:05;20.60;54.10
21807;DHT22;11065;50.786;7.840;2023-05-10T11:13:41;20.50;54.10
21807;DHT22;11065;50.786;7.840;2023-05-10T11:16:12;20.30;54.30
21807;DHT22;11065;50.786;7.840;2023-05-10T11:18:40;20.20;54.20
21807;DHT22;11065;50.786;7.840;2023-05-10T11:21:09;20.00;54.40
21807;DHT22;11065;50.786;7.840;2023-05-10T11:23:49;19.90;54.70
21807;DHT22;11065;50.786;7.840;2023-05-10T11:26:18;19.80;54.70
21807;DHT22;11065;50.786;7.840;2023-05-10T11:28:51;19.70;55.10
21807;DHT22;11065;50.786;7.840;2023-05-10T11:31:20;19.70;55.30
21807;DHT22;11065;50.786;7.840;2023-05-10T11:33:50;19.60;55.60
21807;DHT22;11065;50.786;7.840;2023-05-10T11:36:20;19.60;55.60
21807;DHT22;11065;50.786;7.840;2023-05-10T11:38:48;19.60;55.50
21807;DHT22;11065;50.786;7.840;2023-05-10T11:41:19;19.60;55.60
21807;DHT22;11065;50.786;7.840;2023-05-10T11:43:50;19.60;55.30
21807;DHT22;11065;50.786;7.840;2023-05-10T11:46:20;19.60;55.70
21807;DHT22;11065;50.786;7.840;2023-05-10T11:48:50;19.60;56.00
21807;DHT22;11065;50.786;7.840;2023-05-10T11:51:20;19.60;56.40
21807;DHT22;11065;50.786;7.840;2023-05-10T11:53:50;19.70;56.40
21807;DHT22;11065;50.786;7.840;2023-05-10T11:56:19;19.70;56.40
21807;DHT22;11065;50.786;7.840;2023-05-10T11:58:53;19.80;56.20
21807;DHT22;11065;50.786;7.840;2023-05-10T12:01:22;19.90;56.10
21807;DHT22;11065;50.786;7.840;2023-05-10T12:03:53;19.90;56.20
21807;DHT22;11065;50.786;7.840;2023-05-10T12:06:22;20.00;56.10
21807;DHT22;11065;50.786;7.840;2023-05-10T12:08:50;20.00;56.20
21807;DHT22;11065;50.786;7.840;2023-05-10T12:11:24;20.00;56.20
21807;DHT22;11065;50.786;7.840;2023-05-10T12:13:53;20.10;55.80
21807;DHT22;11065;50.786;7.840;2023-05-10T12:16:23;20.20;55.80
21807;DHT22;11065;50.786;7.840;2023-05-10T12:18:52;20.20;55.70
21807;DHT22;11065;50.786;7.840;2023-05-10T12:21:21;20.20;55.50
21807;DHT22;11065;50.786;7.840;2023-05-10T12:23:51;20.10;55.10
21807;DHT22;11065;50.786;7.840;2023-05-10T12:26:23;20.10;54.90
21807;DHT22;11065;50.786;7.840;2023-05-10T12:28:53;20.00;55.10
21807;DHT22;11065;50.786;7.840;2023-05-10T12:31:21;19.90;54.80
21807;DHT22;11065;50.786;7.840;2023-05-10T12:33:49;19.80;55.00
21807;DHT22;11065;50.786;7.840;2023-05-10T12:36:23;19.70;55.20
21807;DHT22;11065;50.786;7.840;2023-05-10T12:39:02;19.60;55.30
21807;DHT22;11065;50.786;7.840;2023-05-10T12:41:32;19.60;55.50
21807;DHT22;11065;50.786;7.840;2023-05-10T12:44:00;19.60;55.60
21807;DHT22;11065;50.786;7.840;2023-05-10T12:46:28;19.50;55.40
21807;DHT22;11065;50.786;7.840;2023-05-10T12:48:57;19.50;55.40
21807;DHT22;11065;50.786;7.840;2023-05-10T12:51:35;19.50;55.20
21807;DHT22;11065;50.786;7.840;2023-05-10T12:54:03;19.40;55.10
21807;DHT22;11065;50.786;7.840;2023-05-10T12:56:32;19.40;55.20
21807;DHT22;11065;50.786;7.840;2023-05-10T12:59:01;19.40;55.00
21807;DHT22;11065;50.786;7.840;2023-05-10T13:01:29;19.30;54.80
21807;DHT22;11065;50.786;7.840;2023-05-10T13:03:57;19.30;54.70
21807;DHT22;11065;50.786;7.840;2023-05-10T13:06:26;19.30;54.90
21807;DHT22;11065;50.786;7.840;2023-05-10T13:08:54;19.20;55.00
21807;DHT22;11065;50.786;7.840;2023-05-10T13:11:24;19.20;55.20
21807;DHT22;11065;50.786;7.840;2023-05-10T13:13:53;19.10;55.30
21807;DHT22;11065;50.786;7.840;2023-05-10T13:16:22;19.10;55.50
21807;DHT22;11065;50.786;7.840;2023-05-10T13:18:50;19.00;55.50
21807;DHT22;11065;50.786;7.840;2023-05-10T13:21:18;19.00;55.40
21807;DHT22;11065;50.786;7.840;2023-05-10T13:23:46;19.00;55.40
21807;DHT22;11065;50.786;7.840;2023-05-10T13:26:14;19.00;55.50
21807;DHT22;11065;50.786;7.840;2023-05-10T13:28:43;19.00;55.50
21807;DHT22;11065;50.786;7.840;2023-05-10T13:31:14;19.00;55.40
21807;DHT22;11065;50.786;7.840;2023-05-10T13:33:42;19.00;55.50
21807;DHT22;11065;50.786;7.840;2023-05-10T13:36:10;19.00;55.80
21807;DHT22;11065;50.786;7.840;2023-05-10T13:38:38;19.00;55.90
21807;DHT22;11065;50.786;7.840;2023-05-10T13:41:06;19.00;56.10
21807;DHT22;11065;50.786;7.840;2023-05-10T13:43:34;19.10;56.40
21807;DHT22;11065;50.786;7.840;2023-05-10T13:46:02;19.20;56.50
21807;DHT22;11065;50.786;7.840;2023-05-10T13:48:32;19.30;56.40
21807;DHT22;11065;50.786;7.840;2023-05-10T13:51:03;19.40;56.50
21807;DHT22;11065;50.786;7.840;2023-05-10T13:53:31;19.60;56.60
21807;DHT22;11065;50.786;7.840;2023-05-10T13:55:59;19.70;56.60
21807;DHT22;11065;50.786;7.840;2023-05-10T13:58:34;19.90;56.60
21807;DHT22;11065;50.786;7.840;2023-05-10T14:01:03;20.00;56.40
21807;DHT22;11065;50.786;7.840;2023-05-10T14:03:32;20.10;56.00
21807;DHT22;11065;50.786;7.840;2023-05-10T14:06:01;20.30;55.80
21807;DHT22;11065;50.786;7.840;2023-05-10T14:08:29;20.40;55.60
21807;DHT22;11065;50.786;7.840;2023-05-10T14:10:57;20.50;55.50
21807;DHT22;11065;50.786;7.840;2023-05-10T14:13:25;20.50;55.30
21807;DHT22;11065;50.786;7.840;2023-05-10T14:15:54;20.60;55.20
21807;DHT22;11065;50.786;7.840;2023-05-10T14:18:22;20.70;54.90
21807;DHT22;11065;50.786;7.840;2023-05-10T14:20:51;20.70;55.00
21807;DHT22;11065;50.786;7.840;2023-05-10T14:23:20;20.80;54.80
21807;DHT22;11065;50.786;7.840;2023-05-10T14:25:51;20.90;54.90
21807;DHT22;11065;50.786;7.840;2023-05-10T14:28:19;20.90;54.60
21807;DHT22;11065;50.786;7.840;2023-05-10T14:30:47;21.00;54.30
21807;DHT22;11065;50.786;7.840;2023-05-10T14:33:16;21.00;54.30
21807;DHT22;11065;50.786;7.840;2023-05-10T14:35:44;21.00;54.40
21807;DHT22;11065;50.786;7.840;2023-05-10T14:38:14;21.10;54.50
21807;DHT22;11065;50.786;7.840;2023-05-10T14:40:42;21.20;54.90
21807;DHT22;11065;50.786;7.840;2023-05-10T14:43:10;21.40;55.10
21807;DHT22;11065;50.786;7.840;2023-05-10T14:45:39;21.60;55.00
21807;DHT22;11065;50.786;7.840;2023-05-10T14:48:07;21.70;54.80
21807;DHT22;11065;50.786;7.840;2023-05-10T14:50:37;21.90;54.90
21807;DHT22;11065;50.786;7.840;2023-05-10T14:53:06;22.10;54.60
21807;DHT22;11065;50.786;7.840;2023-05-10T14:55:35;22.20;53.40
21807;DHT22;11065;50.786;7.840;2023-05-10T14:58:05;22.20;53.40
21807;DHT22;11065;50.786;7.840;2023-05-10T15:00:33;22.30;53.10
21807;DHT22;11065;50.786;7.840;2023-05-10T15:03:01;22.40;52.50
21807;DHT22;11065;50.786;7.840;2023-05-10T15:05:30;22.30;52.20
21807;DHT22;11065;50.786;7.840;2023-05-10T15:07:59;22.20;52.10
21807;DHT22;11065;50.786;7.840;2023-05-10T15:10:27;22.10;51.80
21807;DHT22;11065;50.786;7.840;2023-05-10T15:12:56;22.00;51.60
21807;DHT22;11065;50.786;7.840;2023-05-10T15:15:24;21.90;51.70
21807;DHT22;11065;50.786;7.840;2023-05-10T15:17:52;21.70;51.60
21807;DHT22;11065;50.786;7.840;2023-05-10T15:20:20;21.60;51.60
21807;DHT22;11065;50.786;7.840;2023-05-10T15:22:48;21.40;51.60
21807;DHT22;11065;50.786;7.840;2023-05-10T15:25:16;21.20;51.50
21807;DHT22;11065;50.786;7.840;2023-05-10T15:27:46;21.00;51.40
21807;DHT22;11065;50.786;7.840;2023-05-10T15:30:15;20.80;51.50
21807;DHT22;11065;50.786;7.840;2023-05-10T15:32:43;20.60;51.50
21807;DHT22;11065;50.786;7.840;2023-05-10T15:35:12;20.40;51.40
21807;DHT22;11065;50.786;7.840;2023-05-10T15:37:40;20.10;51.40
21807;DHT22;11065;50.786;7.840;2023-05-10T15:40:09;19.90;51.60
21807;DHT22;11065;50.786;7.840;2023-05-10T15:42:37;19.80;51.90
21807;DHT22;11065;50.786;7.840;2023-05-10T15:45:06;19.60;52.20
21807;DHT22;11065;50.786;7.840;2023-05-10T15:47:35;19.50;52.30